sensor_id;sensor_type;location;lat;lon;timestamp;pressure;altitude;pressure_sealevel;temperature;humidity
29239;BME280;16267;48.194;11.546;2023-08-07T00:00:47;95632.72;;;12.40;81.11
29239;BME280;16267;48.194;11.546;2023-08-07T00:03:12;95642.41;;;12.37;81.76
29239;BME280;16267;48.194;11.546;2023-08-07T00:05:48;95637.78;;;12.38;82.00
29239;BME280;16267;48.194;11.546;2023-08-07T00:08:14;95632.28;;;12.41;81.08
29239;BME280;16267;48.194;11.546;2023-08-07T00:10:39;95649.47;;;12.47;81.07
29239;BME280;16267;48.194;11.546;2023-08-07T00:13:06;95649.13;;;12.45;80.85
29239;BME280;16267;48.194;11.546;2023-08-07T00:15:31;95648.13;;;12.39;80.88
29239;BME280;16267;48.194;11.546;2023-08-07T00:17:59;95659.66;;;12.40;81.54
29239;BME280;16267;48.194;11.546;2023-08-07T00:20:25;95656.88;;;12.43;82.28
29239;BME280;16267;48.194;11.546;2023-08-07T00:22:51;95647.25;;;12.26;82.53
29239;BME280;16267;48.194;11.546;2023-08-07T00:25:17;95655.25;;;12.30;82.86
29239;BME280;16267;48.194;11.546;2023-08-07T00:27:46;95655.06;;;12.20;83.83
29239;BME280;16267;48.194;11.546;2023-08-07T00:30:12;95655.22;;;12.13;85.48
29239;BME280;16267;48.194;11.546;2023-08-07T00:32:37;95654.91;;;12.27;86.85
29239;BME280;16267;48.194;11.546;2023-08-07T00:35:05;95650.03;;;12.22;87.12
29239;BME280;16267;48.194;11.546;2023-08-07T00:37:31;95661.47;;;12.26;87.34
29239;BME280;16267;48.194;11.546;2023-08-07T00:39:56;95651.97;;;12.22;88.54
29239;BME280;16267;48.194;11.546;2023-08-07T00:42:22;95655.22;;;12.13;90.06
29239;BME280;16267;48.194;11.546;2023-08-07T00:44:48;95659.28;;;12.21;90.03
29239;BME280;16267;48.194;11.546;2023-08-07T00:47:14;95649.75;;;12.00;91.39
29239;BME280;16267;48.194;11.546;2023-08-07T00:49:40;95659.19;;;12.09;92.56
29239;BME280;16267;48.194;11.546;2023-08-07T00:52:06;95650.63;;;11.94;94.27
29239;BME280;16267;48.194;11.546;2023-08-07T00:54:32;95652.69;;;12.06;94.90
29239;BME280;16267;48.194;11.546;2023-08-07T00:57:12;95645.22;;;11.97;95.48
29239;BME280;16267;48.194;11.546;2023-08-07T00:59:40;95654.44;;;11.76;96.06
29239;BME280;16267;48.194;11.546;2023-08-07T01:02:07;95657.19;;;11.93;96.94
29239;BME280;16267;48.194;11.546;2023-08-07T01:04:33;95657.13;;;11.76;97.25
29239;BME280;16267;48.194;11.546;2023-08-07T01:06:58;95660.97;;;11.55;99.11
29239;BME280;16267;48.194;11.546;2023-08-07T01:09:24;95677.63;;;11.50;100.00
29239;BME280;16267;48.194;11.546;2023-08-07T01:14:51;95658.72;;;11.54;100.00
29239;BME280;16267;48.194;11.546;2023-08-07T01:17:21;95660.50;;;11.60;100.00
29239;BME280;16267;48.194;11.546;2023-08-07T01:19:51;95665.13;;;11.60;100.00
29239;BME280;16267;48.194;11.546;2023-08-07T01:22:19;95670.69;;;11.69;100.00
29239;BME280;16267;48.194;11.546;2023-08-07T01:24:50;95669.19;;;11.68;100.00
29239;BME280;16267;48.194;11.546;2023-08-07T01:35:47;95673.66;;;11.55;100.00
29239;BME280;16267;48.194;11.546;2023-08-07T01:38:15;95672.63;;;11.49;100.00
29239;BME280;16267;48.194;11.546;2023-08-07T01:40:42;95676.16;;;11.46;100.00
29239;BME280;16267;48.194;11.546;2023-08-07T01:43:08;95681.38;;;11.33;100.00
29239;BME280;16267;48.194;11.546;2023-08-07T01:45:35;95665.78;;;11.24;100.00
29239;BME280;16267;48.194;11.546;2023-08-07T01:48:00;95674.00;;;11.37;100.00
29239;BME280;16267;48.194;11.546;2023-08-07T01:50:26;95668.75;;;11.10;100.00
29239;BME280;16267;48.194;11.546;2023-08-07T01:52:52;95677.44;;;11.18;100.00
29239;BME280;16267;48.194;11.546;2023-08-07T01:55:20;95681.16;;;11.24;100.00
29239;BME280;16267;48.194;11.546;2023-08-07T01:57:46;95669.03;;;11.35;100.00
29239;BME280;16267;48.194;11.546;2023-08-07T02:00:12;95679.59;;;11.46;100.00
29239;BME280;16267;48.194;11.546;2023-08-07T02:02:38;95680.50;;;11.39;100.00
29239;BME280;16267;48.194;11.546;2023-08-07T02:05:05;95688.53;;;11.20;100.00
29239;BME280;16267;48.194;11.546;2023-08-07T02:07:31;95693.00;;;11.26;100.00
29239;BME280;16267;48.194;11.546;2023-08-07T02:09:57;95687.84;;;11.35;100.00
29239;BME280;16267;48.194;11.546;2023-08-07T02:12:23;95694.75;;;11.36;100.00
29239;BME280;16267;48.194;11.546;2023-08-07T02:14:53;95691.69;;;11.14;100.00
29239;BME280;16267;48.194;11.546;2023-08-07T02:17:21;95697.16;;;11.31;100.00
29239;BME280;16267;48.194;11.546;2023-08-07T02:19:48;95703.69;;;11.30;100.00
29239;BME280;16267;48.194;11.546;2023-08-07T02:22:13;95699.34;;;11.36;100.00
29239;BME280;16267;48.194;11.546;2023-08-07T02:24:39;95694.88;;;11.29;100.00
29239;BME280;16267;48.194;11.546;2023-08-07T02:27:05;95704.94;;;11.25;100.00
29239;BME280;16267;48.194;11.546;2023-08-07T02:29:31;95703.84;;;11.43;100.00
29239;BME280;16267;48.194;11.546;2023-08-07T02:32:01;95700.63;;;11.08;100.00
29239;BME280;16267;48.194;11.546;2023-08-07T02:34:31;95707.94;;;11.27;100.00
29239;BME280;16267;48.194;11.546;2023-08-07T02:36:57;95713.88;;;11.19;100.00
29239;BME280;16267;48.194;11.546;2023-08-07T02:39:24;95720.81;;;11.16;100.00
29239;BME280;16267;48.194;11.546;2023-08-07T02:41:49;95711.31;;;11.11;100.00
29239;BME280;16267;48.194;11.546;2023-08-07T02:44:15;95718.00;;;11.23;100.00
29239;BME280;16267;48.194;11.546;2023-08-07T02:46:43;95719.16;;;11.22;100.00
29239;BME280;16267;48.194;11.546;2023-08-07T02:49:09;95714.47;;;11.06;100.00
29239;BME280;16267;48.194;11.546;2023-08-07T02:51:35;95716.16;;;11.20;100.00
29239;BME280;16267;48.194;11.546;2023-08-07T02:54:00;95719.81;;;11.30;100.00
29239;BME280;16267;48.194;11.546;2023-08-07T02:56:26;95715.03;;;11.18;100.00
29239;BME280;16267;48.194;11.546;2023-08-07T02:58:55;95715.50;;;11.12;100.00
29239;BME280;16267;48.194;11.546;2023-08-07T03:01:23;95712.66;;;11.23;100.00
29239;BME280;16267;48.194;11.546;2023-08-07T03:03:49;95725.25;;;11.26;100.00
29239;BME280;16267;48.194;11.546;2023-08-07T03:06:15;95728.63;;;11.30;100.00
29239;BME280;16267;48.194;11.546;2023-08-07T03:08:41;95729.88;;;11.26;100.00
29239;BME280;16267;48.194;11.546;2023-08-07T03:11:08;95727.03;;;11.33;100.00
29239;BME280;16267;48.194;11.546;2023-08-07T03:13:34;95718.31;;;11.29;100.00
29239;BME280;16267;48.194;11.546;2023-08-07T03:16:04;95721.22;;;11.14;100.00
29239;BME280;16267;48.194;11.546;2023-08-07T03:18:31;95720.88;;;11.12;100.00
29239;BME280;16267;48.194;11.546;2023-08-07T03:20:57;95727.59;;;11.24;100.00
29239;BME280;16267;48.194;11.546;2023-08-07T03:23:24;95715.41;;;11.20;100.00
29239;BME280;16267;48.194;11.546;2023-08-07T03:25:51;95722.09;;;11.31;100.00
29239;BME280;16267;48.194;11.546;2023-08-07T03:28:26;95726.56;;;11.38;100.00
29239;BME280;16267;48.194;11.546;2023-08-07T03:30:52;95725.47;;;11.35;100.00
29239;BME280;16267;48.194;11.546;2023-08-07T03:33:18;95731.16;;;11.18;100.00
29239;BME280;16267;48.194;11.546;2023-08-07T03:35:43;95726.19;;;11.16;100.00
29239;BME280;16267;48.194;11.546;2023-08-07T03:38:09;95731.50;;;11.20;100.00
29239;BME280;16267;48.194;11.546;2023-08-07T03:40:35;95724.50;;;11.02;100.00
29239;BME280;16267;48.194;11.546;2023-08-07T03:43:00;95738.47;;;11.17;100.00
29239;BME280;16267;48.194;11.546;2023-08-07T03:45:26;95738.09;;;11.15;100.00
29239;BME280;16267;48.194;11.546;2023-08-07T03:47:52;95742.53;;;11.02;100.00
29239;BME280;16267;48.194;11.546;2023-08-07T03:50:17;95739.25;;;11.14;100.00
29239;BME280;16267;48.194;11.546;2023-08-07T03:52:43;95734.84;;;11.04;100.00
29239;BME280;16267;48.194;11.546;2023-08-07T03:55:09;95734.19;;;10.96;100.00
29239;BME280;16267;48.194;11.546;2023-08-07T03:57:35;95744.22;;;11.15;100.00
29239;BME280;16267;48.194;11.546;2023-08-07T04:00:00;95744.03;;;11.03;100.00
29239;BME280;16267;48.194;11.546;2023-08-07T04:02:26;95744.81;;;11.03;100.00
29239;BME280;16267;48.194;11.546;2023-08-07T04:04:54;95754.28;;;11.11;100.00
29239;BME280;16267;48.194;11.546;2023-08-07T04:07:19;95738.16;;;11.11;99.68
29239;BME280;16267;48.194;11.546;2023-08-07T04:09:45;95747.91;;;11.02;98.23
29239;BME280;16267;48.194;11.546;2023-08-07T04:12:11;95742.13;;;11.03;98.53
29239;BME280;16267;48.194;11.546;2023-08-07T04:14:37;95754.63;;;11.13;97.89
29239;BME280;16267;48.194;11.546;2023-08-07T04:17:03;95769.88;;;11.20;97.89
29239;BME280;16267;48.194;11.546;2023-08-07T04:19:28;95754.44;;;11.24;96.28
29239;BME280;16267;48.194;11.546;2023-08-07T04:21:54;95767.13;;;11.24;94.37
29239;BME280;16267;48.194;11.546;2023-08-07T04:24:20;95765.72;;;11.15;93.67
29239;BME280;16267;48.194;11.546;2023-08-07T04:26:46;95773.03;;;11.15;94.35
29239;BME280;16267;48.194;11.546;2023-08-07T04:29:11;95762.75;;;11.10;93.32
29239;BME280;16267;48.194;11.546;2023-08-07T04:31:37;95772.84;;;11.26;94.65
29239;BME280;16267;48.194;11.546;2023-08-07T04:34:03;95771.03;;;11.19;92.61
29239;BME280;16267;48.194;11.546;2023-08-07T04:36:29;95767.53;;;11.22;93.41
29239;BME280;16267;48.194;11.546;2023-08-07T04:38:54;95773.25;;;11.24;91.63
29239;BME280;16267;48.194;11.546;2023-08-07T04:41:21;95786.38;;;11.19;90.59
29239;BME280;16267;48.194;11.546;2023-08-07T04:43:47;95782.34;;;11.30;91.46
29239;BME280;16267;48.194;11.546;2023-08-07T04:46:14;95780.44;;;11.31;91.17
29239;BME280;16267;48.194;11.546;2023-08-07T04:48:40;95780.09;;;11.29;89.66
29239;BME280;16267;48.194;11.546;2023-08-07T04:51:06;95791.25;;;11.27;89.77
29239;BME280;16267;48.194;11.546;2023-08-07T04:53:32;95794.63;;;11.31;88.91
29239;BME280;16267;48.194;11.546;2023-08-07T04:55:59;95787.44;;;11.25;88.55
29239;BME280;16267;48.194;11.546;2023-08-07T04:58:25;95798.84;;;11.32;89.23
29239;BME280;16267;48.194;11.546;2023-08-07T05:00:55;95795.78;;;11.30;87.95
29239;BME280;16267;48.194;11.546;2023-08-07T05:03:22;95796.91;;;11.33;87.14
29239;BME280;16267;48.194;11.546;2023-08-07T05:05:48;95802.63;;;11.35;87.12
29239;BME280;16267;48.194;11.546;2023-08-07T05:08:13;95812.63;;;11.34;86.57
29239;BME280;16267;48.194;11.546;2023-08-07T05:10:39;95797.69;;;11.33;84.85
29239;BME280;16267;48.194;11.546;2023-08-07T05:13:05;95803.38;;;11.35;85.36
29239;BME280;16267;48.194;11.546;2023-08-07T05:15:31;95812.56;;;11.38;86.72
29239;BME280;16267;48.194;11.546;2023-08-07T05:17:57;95798.44;;;11.34;85.21
29239;BME280;16267;48.194;11.546;2023-08-07T05:20:22;95801.13;;;11.34;84.71
29239;BME280;16267;48.194;11.546;2023-08-07T05:22:48;95811.00;;;11.41;84.82
29239;BME280;16267;48.194;11.546;2023-08-07T05:25:15;95809.47;;;11.39;85.19
29239;BME280;16267;48.194;11.546;2023-08-07T05:27:45;95818.75;;;11.35;84.96
29239;BME280;16267;48.194;11.546;2023-08-07T05:30:12;95815.25;;;11.38;84.34
29239;BME280;16267;48.194;11.546;2023-08-07T05:32:38;95807.47;;;11.44;84.61
29239;BME280;16267;48.194;11.546;2023-08-07T05:35:05;95816.19;;;11.51;84.21
29239;BME280;16267;48.194;11.546;2023-08-07T05:37:33;95817.47;;;11.43;82.69
29239;BME280;16267;48.194;11.546;2023-08-07T05:39:59;95818.94;;;11.48;83.17
29239;BME280;16267;48.194;11.546;2023-08-07T05:42:25;95820.91;;;11.44;82.81
29239;BME280;16267;48.194;11.546;2023-08-07T05:44:51;95825.75;;;11.52;82.67
29239;BME280;16267;48.194;11.546;2023-08-07T05:47:17;95822.25;;;11.55;83.62
29239;BME280;16267;48.194;11.546;2023-08-07T05:49:43;95828.06;;;11.54;82.70
29239;BME280;16267;48.194;11.546;2023-08-07T05:52:09;95835.34;;;11.53;83.06
29239;BME280;16267;48.194;11.546;2023-08-07T05:54:34;95838.03;;;11.53;82.87
29239;BME280;16267;48.194;11.546;2023-08-07T05:57:00;95845.69;;;11.55;82.26
29239;BME280;16267;48.194;11.546;2023-08-07T05:59:26;95844.81;;;11.61;82.86
29239;BME280;16267;48.194;11.546;2023-08-07T06:01:53;95840.88;;;11.66;82.57
29239;BME280;16267;48.194;11.546;2023-08-07T06:04:20;95860.25;;;11.57;83.05
29239;BME280;16267;48.194;11.546;2023-08-07T06:06:47;95843.47;;;11.50;82.15
29239;BME280;16267;48.194;11.546;2023-08-07T06:09:13;95842.66;;;11.53;82.49
29239;BME280;16267;48.194;11.546;2023-08-07T06:11:43;95849.63;;;11.50;82.93
29239;BME280;16267;48.194;11.546;2023-08-07T06:14:09;95856.88;;;11.53;81.69
29239;BME280;16267;48.194;11.546;2023-08-07T06:16:35;95847.84;;;11.64;82.34
29239;BME280;16267;48.194;11.546;2023-08-07T06:19:00;95854.97;;;11.74;82.96
29239;BME280;16267;48.194;11.546;2023-08-07T06:21:26;95867.88;;;11.82;83.29
29239;BME280;16267;48.194;11.546;2023-08-07T06:23:54;95860.72;;;11.76;81.67
29239;BME280;16267;48.194;11.546;2023-08-07T06:26:20;95845.63;;;11.82;81.65
29239;BME280;16267;48.194;11.546;2023-08-07T06:28:45;95848.66;;;11.84;81.06
29239;BME280;16267;48.194;11.546;2023-08-07T06:31:12;95858.16;;;11.92;81.67
29239;BME280;16267;48.194;11.546;2023-08-07T06:33:39;95860.84;;;11.92;79.95
29239;BME280;16267;48.194;11.546;2023-08-07T06:36:06;95865.19;;;11.86;80.02
29239;BME280;16267;48.194;11.546;2023-08-07T06:38:32;95856.97;;;11.93;80.00
29239;BME280;16267;48.194;11.546;2023-08-07T06:40:57;95858.09;;;11.96;79.52
29239;BME280;16267;48.194;11.546;2023-08-07T06:43:23;95858.78;;;12.00;78.83
29239;BME280;16267;48.194;11.546;2023-08-07T06:45:56;95859.47;;;12.04;78.82
29239;BME280;16267;48.194;11.546;2023-08-07T06:48:23;95869.66;;;11.93;76.92
29239;BME280;16267;48.194;11.546;2023-08-07T06:50:50;95870.41;;;11.93;77.10
29239;BME280;16267;48.194;11.546;2023-08-07T06:53:15;95871.53;;;11.96;77.49
29239;BME280;16267;48.194;11.546;2023-08-07T06:55:42;95871.69;;;12.09;79.09
29239;BME280;16267;48.194;11.546;2023-08-07T06:58:09;95872.47;;;12.09;77.52
29239;BME280;16267;48.194;11.546;2023-08-07T07:00:35;95873.50;;;12.15;76.82
29239;BME280;16267;48.194;11.546;2023-08-07T07:03:02;95874.19;;;12.19;77.22
29239;BME280;16267;48.194;11.546;2023-08-07T07:05:28;95865.16;;;12.30;77.19
29239;BME280;16267;48.194;11.546;2023-08-07T07:07:54;95870.88;;;12.32;76.55
29239;BME280;16267;48.194;11.546;2023-08-07T07:10:20;95883.44;;;12.38;75.56
29239;BME280;16267;48.194;11.546;2023-08-07T07:12:46;95888.34;;;12.43;75.86
29239;BME280;16267;48.194;11.546;2023-08-07T07:15:12;95886.94;;;12.55;77.30
29239;BME280;16267;48.194;11.546;2023-08-07T07:17:38;95886.28;;;12.51;74.36
29239;BME280;16267;48.194;11.546;2023-08-07T07:20:05;95902.69;;;12.57;73.90
29239;BME280;16267;48.194;11.546;2023-08-07T07:22:31;95891.25;;;12.53;74.08
29239;BME280;16267;48.194;11.546;2023-08-07T07:24:59;95894.22;;;12.58;73.64
29239;BME280;16267;48.194;11.546;2023-08-07T07:27:25;95906.06;;;12.61;73.11
29239;BME280;16267;48.194;11.546;2023-08-07T07:29:52;95913.66;;;12.66;71.76
29239;BME280;16267;48.194;11.546;2023-08-07T07:32:18;95896.84;;;12.62;71.35
29239;BME280;16267;48.194;11.546;2023-08-07T07:34:44;95910.38;;;12.78;72.72
29239;BME280;16267;48.194;11.546;2023-08-07T07:37:10;95896.84;;;12.98;72.38
29239;BME280;16267;48.194;11.546;2023-08-07T07:39:36;95896.72;;;13.05;71.26
29239;BME280;16267;48.194;11.546;2023-08-07T07:42:02;95908.91;;;13.10;70.92
29239;BME280;16267;48.194;11.546;2023-08-07T07:44:30;95926.81;;;13.20;71.36
29239;BME280;16267;48.194;11.546;2023-08-07T07:46:55;95916.09;;;13.16;69.48
29239;BME280;16267;48.194;11.546;2023-08-07T07:49:24;95921.69;;;13.26;68.91
29239;BME280;16267;48.194;11.546;2023-08-07T07:51:50;95932.41;;;13.29;69.30
29239;BME280;16267;48.194;11.546;2023-08-07T07:54:15;95925.06;;;13.30;68.84
29239;BME280;16267;48.194;11.546;2023-08-07T07:56:43;95925.41;;;13.32;67.54
29239;BME280;16267;48.194;11.546;2023-08-07T07:59:09;95922.72;;;13.32;67.13
29239;BME280;16267;48.194;11.546;2023-08-07T08:01:34;95927.88;;;13.43;69.45
29239;BME280;16267;48.194;11.546;2023-08-07T08:04:01;95934.28;;;13.49;68.79
29239;BME280;16267;48.194;11.546;2023-08-07T08:06:26;95930.34;;;13.53;69.69
29239;BME280;16267;48.194;11.546;2023-08-07T08:08:52;95930.56;;;13.43;67.04
29239;BME280;16267;48.194;11.546;2023-08-07T08:11:18;95940.44;;;13.49;68.04
29239;BME280;16267;48.194;11.546;2023-08-07T08:13:44;95941.22;;;13.50;67.14
29239;BME280;16267;48.194;11.546;2023-08-07T08:16:10;95945.56;;;13.60;68.70
29239;BME280;16267;48.194;11.546;2023-08-07T08:18:35;95946.19;;;13.68;69.48
29239;BME280;16267;48.194;11.546;2023-08-07T08:21:03;95949.03;;;13.60;67.91
29239;BME280;16267;48.194;11.546;2023-08-07T08:23:29;95951.47;;;13.55;66.41
29239;BME280;16267;48.194;11.546;2023-08-07T08:25:55;95950.13;;;13.63;67.36
29239;BME280;16267;48.194;11.546;2023-08-07T08:28:21;95950.38;;;13.69;68.01
29239;BME280;16267;48.194;11.546;2023-08-07T08:30:48;95963.69;;;13.59;66.82
29239;BME280;16267;48.194;11.546;2023-08-07T08:33:16;95949.22;;;13.53;67.43
29239;BME280;16267;48.194;11.546;2023-08-07T08:35:43;95956.34;;;13.44;67.59
29239;BME280;16267;48.194;11.546;2023-08-07T08:38:09;95963.34;;;13.57;68.31
29239;BME280;16267;48.194;11.546;2023-08-07T08:40:38;95962.69;;;13.53;66.47
29239;BME280;16267;48.194;11.546;2023-08-07T08:43:05;95961.44;;;13.58;66.96
29239;BME280;16267;48.194;11.546;2023-08-07T08:45:32;95974.41;;;13.63;67.00
29239;BME280;16267;48.194;11.546;2023-08-07T08:48:03;95972.91;;;13.62;66.77
29239;BME280;16267;48.194;11.546;2023-08-07T08:50:30;95973.56;;;13.66;66.98
29239;BME280;16267;48.194;11.546;2023-08-07T08:52:57;95975.94;;;13.64;66.84
29239;BME280;16267;48.194;11.546;2023-08-07T08:55:23;95978.03;;;13.73;67.48
29239;BME280;16267;48.194;11.546;2023-08-07T08:57:49;95988.66;;;13.64;67.70
29239;BME280;16267;48.194;11.546;2023-08-07T09:00:16;95980.31;;;13.58;66.19
29239;BME280;16267;48.194;11.546;2023-08-07T09:02:50;95974.84;;;13.61;66.25
29239;BME280;16267;48.194;11.546;2023-08-07T09:05:20;95983.53;;;13.69;67.46
29239;BME280;16267;48.194;11.546;2023-08-07T09:07:49;95984.69;;;13.68;66.73
29239;BME280;16267;48.194;11.546;2023-08-07T09:10:16;95997.50;;;13.64;66.34
29239;BME280;16267;48.194;11.546;2023-08-07T09:13:02;95992.38;;;13.70;65.96
29239;BME280;16267;48.194;11.546;2023-08-07T09:15:34;95992.53;;;13.63;64.56
29239;BME280;16267;48.194;11.546;2023-08-07T09:18:05;96008.03;;;13.58;66.01
29239;BME280;16267;48.194;11.546;2023-08-07T09:20:35;96005.56;;;13.48;65.30
29239;BME280;16267;48.194;11.546;2023-08-07T09:23:01;96005.72;;;13.41;65.40
29239;BME280;16267;48.194;11.546;2023-08-07T09:25:36;95987.97;;;13.59;66.11
29239;BME280;16267;48.194;11.546;2023-08-07T09:28:05;95985.19;;;13.63;65.34
29239;BME280;16267;48.194;11.546;2023-08-07T09:30:34;95990.34;;;13.74;66.82
29239;BME280;16267;48.194;11.546;2023-08-07T09:33:01;95989.00;;;13.82;66.42
29239;BME280;16267;48.194;11.546;2023-08-07T09:35:30;95984.31;;;14.02;67.13
29239;BME280;16267;48.194;11.546;2023-08-07T09:37:59;95989.16;;;14.07;66.59
29239;BME280;16267;48.194;11.546;2023-08-07T09:40:26;95992.56;;;14.12;65.22
29239;BME280;16267;48.194;11.546;2023-08-07T09:42:54;95991.97;;;14.20;66.63
29239;BME280;16267;48.194;11.546;2023-08-07T09:45:25;95989.34;;;14.33;65.99
29239;BME280;16267;48.194;11.546;2023-08-07T09:48:02;95990.44;;;14.36;65.62
29239;BME280;16267;48.194;11.546;2023-08-07T09:50:30;95978.84;;;14.35;64.52
29239;BME280;16267;48.194;11.546;2023-08-07T09:52:56;95988.50;;;14.20;63.71
29239;BME280;16267;48.194;11.546;2023-08-07T09:55:24;95983.94;;;14.33;64.45
29239;BME280;16267;48.194;11.546;2023-08-07T09:57:50;95979.53;;;14.39;63.16
29239;BME280;16267;48.194;11.546;2023-08-07T10:00:17;95985.69;;;14.56;64.19
29239;BME280;16267;48.194;11.546;2023-08-07T10:02:49;95988.63;;;14.62;62.51
29239;BME280;16267;48.194;11.546;2023-08-07T10:05:16;95981.44;;;14.71;61.85
29239;BME280;16267;48.194;11.546;2023-08-07T10:07:43;95990.75;;;14.83;62.39
29239;BME280;16267;48.194;11.546;2023-08-07T10:10:09;95986.69;;;14.91;63.04
29239;BME280;16267;48.194;11.546;2023-08-07T10:12:37;95986.56;;;14.95;61.26
29239;BME280;16267;48.194;11.546;2023-08-07T10:15:04;95978.59;;;15.04;62.62
29239;BME280;16267;48.194;11.546;2023-08-07T10:17:31;95980.25;;;15.14;62.42
29239;BME280;16267;48.194;11.546;2023-08-07T10:19:58;95990.00;;;15.25;62.18
29239;BME280;16267;48.194;11.546;2023-08-07T10:22:26;95984.06;;;15.30;60.89
29239;BME280;16267;48.194;11.546;2023-08-07T10:24:54;96001.03;;;15.30;61.96
29239;BME280;16267;48.194;11.546;2023-08-07T10:27:23;95977.34;;;15.22;59.53
29239;BME280;16267;48.194;11.546;2023-08-07T10:29:51;95978.31;;;15.28;60.60
29239;BME280;16267;48.194;11.546;2023-08-07T10:32:23;95990.13;;;15.34;58.87
29239;BME280;16267;48.194;11.546;2023-08-07T10:34:50;95978.66;;;15.43;59.84
29239;BME280;16267;48.194;11.546;2023-08-07T10:37:43;95982.88;;;15.56;59.78
29239;BME280;16267;48.194;11.546;2023-08-07T10:40:12;95980.06;;;15.60;57.58
29239;BME280;16267;48.194;11.546;2023-08-07T10:45:34;95973.69;;;15.92;58.80
29239;BME280;16267;48.194;11.546;2023-08-07T10:48:10;95966.84;;;16.13;59.98
29239;BME280;16267;48.194;11.546;2023-08-07T10:53:57;95959.88;;;16.25;56.63
29239;BME280;16267;48.194;11.546;2023-08-07T10:56:35;95953.53;;;16.19;55.22
29239;BME280;16267;48.194;11.546;2023-08-07T10:59:11;95952.09;;;16.27;56.39
29239;BME280;16267;48.194;11.546;2023-08-07T11:01:42;95956.84;;;16.23;55.87
29239;BME280;16267;48.194;11.546;2023-08-07T11:04:15;95961.59;;;16.32;56.91
29239;BME280;16267;48.194;11.546;2023-08-07T11:06:43;95954.94;;;16.11;55.83
29239;BME280;16267;48.194;11.546;2023-08-07T11:09:10;95950.84;;;16.06;56.32
29239;BME280;16267;48.194;11.546;2023-08-07T11:11:47;95958.06;;;16.22;57.99
29239;BME280;16267;48.194;11.546;2023-08-07T11:14:18;95951.09;;;16.34;57.12
29239;BME280;16267;48.194;11.546;2023-08-07T11:16:47;95947.81;;;16.39;56.31
29239;BME280;16267;48.194;11.546;2023-08-07T11:19:17;95951.59;;;16.41;54.61
29239;BME280;16267;48.194;11.546;2023-08-07T11:21:44;95946.50;;;16.43;54.66
29239;BME280;16267;48.194;11.546;2023-08-07T11:24:14;95950.59;;;16.48;54.91
29239;BME280;16267;48.194;11.546;2023-08-07T11:26:44;95961.44;;;16.48;55.32
29239;BME280;16267;48.194;11.546;2023-08-07T11:29:10;95964.81;;;16.39;55.34
29239;BME280;16267;48.194;11.546;2023-08-07T11:31:36;95964.19;;;16.35;55.75
29239;BME280;16267;48.194;11.546;2023-08-07T11:34:02;95961.44;;;16.13;55.04
29239;BME280;16267;48.194;11.546;2023-08-07T11:36:28;95974.09;;;16.16;55.45
29239;BME280;16267;48.194;11.546;2023-08-07T11:38:54;95959.34;;;16.17;56.10
29239;BME280;16267;48.194;11.546;2023-08-07T11:41:20;95968.56;;;16.20;55.35
29239;BME280;16267;48.194;11.546;2023-08-07T11:43:52;95967.25;;;16.24;55.16
29239;BME280;16267;48.194;11.546;2023-08-07T11:46:18;95969.63;;;16.22;54.08
29239;BME280;16267;48.194;11.546;2023-08-07T11:48:44;95974.94;;;16.26;54.40
29239;BME280;16267;48.194;11.546;2023-08-07T11:51:10;95982.50;;;16.31;54.12
29239;BME280;16267;48.194;11.546;2023-08-07T11:53:40;95977.63;;;16.39;55.15
29239;BME280;16267;48.194;11.546;2023-08-07T11:56:10;95972.75;;;16.34;53.68
29239;BME280;16267;48.194;11.546;2023-08-07T11:58:44;95973.06;;;16.36;51.88
29239;BME280;16267;48.194;11.546;2023-08-07T12:01:24;95973.03;;;16.48;52.70
29239;BME280;16267;48.194;11.546;2023-08-07T12:06:32;95977.81;;;16.79;54.88
29239;BME280;16267;48.194;11.546;2023-08-07T12:08:58;95983.53;;;16.81;53.00
29239;BME280;16267;48.194;11.546;2023-08-07T12:11:25;95978.81;;;16.94;53.04
29239;BME280;16267;48.194;11.546;2023-08-07T12:13:51;95981.91;;;17.06;52.96
29239;BME280;16267;48.194;11.546;2023-08-07T12:16:17;95980.69;;;17.07;51.94
29239;BME280;16267;48.194;11.546;2023-08-07T12:18:52;95982.56;;;17.10;52.52
29239;BME280;16267;48.194;11.546;2023-08-07T12:21:22;95983.78;;;17.18;51.73
29239;BME280;16267;48.194;11.546;2023-08-07T12:23:50;95985.63;;;17.21;51.06
29239;BME280;16267;48.194;11.546;2023-08-07T12:26:17;95987.75;;;17.26;52.00
29239;BME280;16267;48.194;11.546;2023-08-07T12:28:43;95988.16;;;17.15;49.06
29239;BME280;16267;48.194;11.546;2023-08-07T12:31:09;95996.22;;;17.06;48.48
29239;BME280;16267;48.194;11.546;2023-08-07T12:33:35;95992.31;;;17.07;48.44
29239;BME280;16267;48.194;11.546;2023-08-07T12:36:02;96001.53;;;17.10;49.73
29239;BME280;16267;48.194;11.546;2023-08-07T12:38:28;96003.53;;;16.97;48.87
29239;BME280;16267;48.194;11.546;2023-08-07T12:40:54;96001.00;;;16.80;48.52
29239;BME280;16267;48.194;11.546;2023-08-07T12:43:20;95985.25;;;16.88;49.61
29239;BME280;16267;48.194;11.546;2023-08-07T12:45:46;96000.56;;;16.82;48.26
29239;BME280;16267;48.194;11.546;2023-08-07T12:48:13;95999.44;;;16.92;49.59
29239;BME280;16267;48.194;11.546;2023-08-07T12:50:39;96009.06;;;16.93;48.65
29239;BME280;16267;48.194;11.546;2023-08-07T12:53:07;96003.41;;;17.00;47.91
29239;BME280;16267;48.194;11.546;2023-08-07T12:55:33;96001.06;;;16.89;48.09
29239;BME280;16267;48.194;11.546;2023-08-07T12:57:59;96002.16;;;16.92;49.07
29239;BME280;16267;48.194;11.546;2023-08-07T13:00:25;96009.91;;;16.68;48.61
29239;BME280;16267;48.194;11.546;2023-08-07T13:02:52;96003.72;;;16.80;49.07
29239;BME280;16267;48.194;11.546;2023-08-07T13:05:21;96007.50;;;16.83;49.53
29239;BME280;16267;48.194;11.546;2023-08-07T13:07:47;96008.13;;;16.87;49.75